sensor_id;sensor_type;location;lat;lon;timestamp;temperature;humidity
43697;DHT22;29301;47.620;19.560;2023-07-13T00:02:15;24.70;70.60
43697;DHT22;29301;47.620;19.560;2023-07-13T00:04:40;24.70;70.30
43697;DHT22;29301;47.620;19.560;2023-07-13T00:07:07;24.40;70.60
43697;DHT22;29301;47.620;19.560;2023-07-13T00:09:33;24.30;73.70
43697;DHT22;29301;47.620;19.560;2023-07-13T00:11:59;24.30;74.40
43697;DHT22;29301;47.620;19.560;2023-07-13T00:14:26;24.40;75.30
43697;DHT22;29301;47.620;19.560;2023-07-13T00:16:53;24.50;76.70
43697;DHT22;29301;47.620;19.560;2023-07-13T00:19:19;24.50;76.40
43697;DHT22;29301;47.620;19.560;2023-07-13T00:21:45;24.60;77.00
43697;DHT22;29301;47.620;19.560;2023-07-13T00:24:12;24.60;77.10
43697;DHT22;29301;47.620;19.560;2023-07-13T00:26:38;24.60;77.00
43697;DHT22;29301;47.620;19.560;2023-07-13T00:29:04;24.60;78.40
43697;DHT22;29301;47.620;19.560;2023-07-13T00:31:33;24.60;79.10
43697;DHT22;29301;47.620;19.560;2023-07-13T00:33:59;24.50;79.60
43697;DHT22;29301;47.620;19.560;2023-07-13T00:36:25;24.40;81.50
43697;DHT22;29301;47.620;19.560;2023-07-13T00:38:51;24.40;82.60
43697;DHT22;29301;47.620;19.560;2023-07-13T00:41:18;24.40;83.60
43697;DHT22;29301;47.620;19.560;2023-07-13T00:43:44;24.40;84.10
43697;DHT22;29301;47.620;19.560;2023-07-13T00:48:51;24.20;85.20
43697;DHT22;29301;47.620;19.560;2023-07-13T00:51:50;24.20;84.50
43697;DHT22;29301;47.620;19.560;2023-07-13T00:54:27;24.10;84.40
43697;DHT22;29301;47.620;19.560;2023-07-13T00:56:58;24.20;83.40
43697;DHT22;29301;47.620;19.560;2023-07-13T00:59:24;24.20;83.90
43697;DHT22;29301;47.620;19.560;2023-07-13T01:01:51;24.10;86.80
43697;DHT22;29301;47.620;19.560;2023-07-13T01:04:18;24.10;88.00
43697;DHT22;29301;47.620;19.560;2023-07-13T01:06:44;24.00;89.10
43697;DHT22;29301;47.620;19.560;2023-07-13T01:09:11;23.80;90.30
43697;DHT22;29301;47.620;19.560;2023-07-13T01:11:37;23.70;92.20
43697;DHT22;29301;47.620;19.560;2023-07-13T01:14:03;23.50;93.40
43697;DHT22;29301;47.620;19.560;2023-07-13T01:16:31;23.20;95.70
43697;DHT22;29301;47.620;19.560;2023-07-13T01:18:58;23.20;96.90
43697;DHT22;29301;47.620;19.560;2023-07-13T01:21:25;23.30;97.60
43697;DHT22;29301;47.620;19.560;2023-07-13T01:23:51;23.40;97.80
43697;DHT22;29301;47.620;19.560;2023-07-13T01:26:16;23.50;97.00
43697;DHT22;29301;47.620;19.560;2023-07-13T01:28:43;23.50;95.80
43697;DHT22;29301;47.620;19.560;2023-07-13T01:31:09;23.50;95.60
43697;DHT22;29301;47.620;19.560;2023-07-13T01:33:37;23.50;96.00
43697;DHT22;29301;47.620;19.560;2023-07-13T01:36:03;23.50;95.30
43697;DHT22;29301;47.620;19.560;2023-07-13T01:38:29;23.10;97.30
43697;DHT22;29301;47.620;19.560;2023-07-13T01:40:55;22.60;99.90
43697;DHT22;29301;47.620;19.560;2023-07-13T01:43:20;22.40;99.90
43697;DHT22;29301;47.620;19.560;2023-07-13T01:45:47;21.90;99.90
43697;DHT22;29301;47.620;19.560;2023-07-13T01:48:13;21.50;99.90
43697;DHT22;29301;47.620;19.560;2023-07-13T01:50:39;21.50;99.90
43697;DHT22;29301;47.620;19.560;2023-07-13T01:53:05;21.50;99.90
43697;DHT22;29301;47.620;19.560;2023-07-13T01:55:31;21.50;99.90
43697;DHT22;29301;47.620;19.560;2023-07-13T01:57:57;21.70;99.90
43697;DHT22;29301;47.620;19.560;2023-07-13T02:00:23;22.00;99.90
43697;DHT22;29301;47.620;19.560;2023-07-13T02:02:50;22.30;99.90
43697;DHT22;29301;47.620;19.560;2023-07-13T02:05:16;22.40;99.90
43697;DHT22;29301;47.620;19.560;2023-07-13T02:07:42;22.40;99.90
43697;DHT22;29301;47.620;19.560;2023-07-13T02:10:09;22.30;99.90
43697;DHT22;29301;47.620;19.560;2023-07-13T02:12:36;22.30;99.90
43697;DHT22;29301;47.620;19.560;2023-07-13T02:15:02;22.50;99.90
43697;DHT22;29301;47.620;19.560;2023-07-13T02:17:28;22.70;99.90
43697;DHT22;29301;47.620;19.560;2023-07-13T02:19:54;22.80;99.90
43697;DHT22;29301;47.620;19.560;2023-07-13T02:22:21;22.90;99.90
43697;DHT22;29301;47.620;19.560;2023-07-13T02:24:47;23.00;99.90
43697;DHT22;29301;47.620;19.560;2023-07-13T02:27:13;23.10;99.90
43697;DHT22;29301;47.620;19.560;2023-07-13T02:29:39;23.10;99.90
43697;DHT22;29301;47.620;19.560;2023-07-13T02:32:05;23.10;99.50
43697;DHT22;29301;47.620;19.560;2023-07-13T02:34:31;22.90;99.90
43697;DHT22;29301;47.620;19.560;2023-07-13T02:36:56;23.00;99.90
43697;DHT22;29301;47.620;19.560;2023-07-13T02:39:22;23.00;99.90
43697;DHT22;29301;47.620;19.560;2023-07-13T02:41:47;23.10;99.90
43697;DHT22;29301;47.620;19.560;2023-07-13T02:44:14;23.10;99.50
43697;DHT22;29301;47.620;19.560;2023-07-13T02:46:40;23.10;98.60
43697;DHT22;29301;47.620;19.560;2023-07-13T02:49:05;23.10;98.40
43697;DHT22;29301;47.620;19.560;2023-07-13T02:51:31;23.00;98.50
43697;DHT22;29301;47.620;19.560;2023-07-13T02:54:02;23.00;98.70
43697;DHT22;29301;47.620;19.560;2023-07-13T02:56:30;22.90;98.90
43697;DHT22;29301;47.620;19.560;2023-07-13T02:58:56;22.90;98.70
43697;DHT22;29301;47.620;19.560;2023-07-13T03:01:23;23.00;98.50
43697;DHT22;29301;47.620;19.560;2023-07-13T03:03:50;23.00;98.10
43697;DHT22;29301;47.620;19.560;2023-07-13T03:06:16;23.00;98.30
43697;DHT22;29301;47.620;19.560;2023-07-13T03:08:43;22.70;98.60
43697;DHT22;29301;47.620;19.560;2023-07-13T03:11:12;22.50;99.90
43697;DHT22;29301;47.620;19.560;2023-07-13T03:13:40;22.50;99.90
43697;DHT22;29301;47.620;19.560;2023-07-13T03:16:06;22.50;99.90
43697;DHT22;29301;47.620;19.560;2023-07-13T03:18:32;22.60;99.90
43697;DHT22;29301;47.620;19.560;2023-07-13T03:20:57;22.60;99.90
43697;DHT22;29301;47.620;19.560;2023-07-13T03:23:24;22.60;99.90
43697;DHT22;29301;47.620;19.560;2023-07-13T03:25:50;22.70;99.80
43697;DHT22;29301;47.620;19.560;2023-07-13T03:28:25;22.80;99.60
43697;DHT22;29301;47.620;19.560;2023-07-13T03:30:59;22.80;99.40
43697;DHT22;29301;47.620;19.560;2023-07-13T03:33:25;22.90;98.70
43697;DHT22;29301;47.620;19.560;2023-07-13T03:35:50;22.90;98.60
43697;DHT22;29301;47.620;19.560;2023-07-13T03:38:16;22.80;99.10
43697;DHT22;29301;47.620;19.560;2023-07-13T03:40:42;22.70;99.90
43697;DHT22;29301;47.620;19.560;2023-07-13T03:43:08;22.60;99.90
43697;DHT22;29301;47.620;19.560;2023-07-13T03:45:33;22.50;99.90
43697;DHT22;29301;47.620;19.560;2023-07-13T03:47:59;22.30;99.90
43697;DHT22;29301;47.620;19.560;2023-07-13T03:50:24;22.10;99.90
43697;DHT22;29301;47.620;19.560;2023-07-13T03:52:50;22.20;99.90
43697;DHT22;29301;47.620;19.560;2023-07-13T03:55:16;22.20;99.90
43697;DHT22;29301;47.620;19.560;2023-07-13T03:57:42;22.20;99.90
43697;DHT22;29301;47.620;19.560;2023-07-13T04:00:07;22.30;99.90
43697;DHT22;29301;47.620;19.560;2023-07-13T04:02:34;22.50;99.90
43697;DHT22;29301;47.620;19.560;2023-07-13T04:04:59;22.60;99.90
43697;DHT22;29301;47.620;19.560;2023-07-13T04:07:25;22.70;99.90
43697;DHT22;29301;47.620;19.560;2023-07-13T04:09:51;22.70;99.90
43697;DHT22;29301;47.620;19.560;2023-07-13T04:12:16;22.70;99.90
43697;DHT22;29301;47.620;19.560;2023-07-13T04:14:42;22.80;99.90
43697;DHT22;29301;47.620;19.560;2023-07-13T04:17:08;22.80;99.90
43697;DHT22;29301;47.620;19.560;2023-07-13T04:19:33;22.90;99.90
43697;DHT22;29301;47.620;19.560;2023-07-13T04:21:59;22.90;99.90
43697;DHT22;29301;47.620;19.560;2023-07-13T04:24:25;22.90;99.90
43697;DHT22;29301;47.620;19.560;2023-07-13T04:26:51;23.00;99.90
43697;DHT22;29301;47.620;19.560;2023-07-13T04:29:17;23.10;99.90
43697;DHT22;29301;47.620;19.560;2023-07-13T04:31:42;23.10;99.90
43697;DHT22;29301;47.620;19.560;2023-07-13T04:34:08;23.10;99.80
43697;DHT22;29301;47.620;19.560;2023-07-13T04:36:33;23.10;99.30
43697;DHT22;29301;47.620;19.560;2023-07-13T04:39:02;23.10;99.80
43697;DHT22;29301;47.620;19.560;2023-07-13T04:41:28;23.00;99.90
43697;DHT22;29301;47.620;19.560;2023-07-13T04:43:54;23.00;99.90
43697;DHT22;29301;47.620;19.560;2023-07-13T04:46:20;23.00;99.90
43697;DHT22;29301;47.620;19.560;2023-07-13T04:48:45;23.00;99.90
43697;DHT22;29301;47.620;19.560;2023-07-13T04:51:11;22.90;99.90
43697;DHT22;29301;47.620;19.560;2023-07-13T04:53:37;23.00;99.90
43697;DHT22;29301;47.620;19.560;2023-07-13T04:56:03;23.00;99.90
43697;DHT22;29301;47.620;19.560;2023-07-13T04:58:29;22.90;99.90
43697;DHT22;29301;47.620;19.560;2023-07-13T05:01:03;23.00;99.90
43697;DHT22;29301;47.620;19.560;2023-07-13T05:03:30;23.00;99.90
43697;DHT22;29301;47.620;19.560;2023-07-13T05:06:00;23.10;99.90
43697;DHT22;29301;47.620;19.560;2023-07-13T05:08:26;23.20;99.90
43697;DHT22;29301;47.620;19.560;2023-07-13T05:10:52;23.10;99.90
43697;DHT22;29301;47.620;19.560;2023-07-13T05:13:18;23.00;99.90
43697;DHT22;29301;47.620;19.560;2023-07-13T05:15:44;22.90;99.90
43697;DHT22;29301;47.620;19.560;2023-07-13T05:18:10;22.90;99.90
43697;DHT22;29301;47.620;19.560;2023-07-13T05:20:36;22.90;99.90
43697;DHT22;29301;47.620;19.560;2023-07-13T05:23:01;23.00;99.90
43697;DHT22;29301;47.620;19.560;2023-07-13T05:25:27;23.00;99.90
43697;DHT22;29301;47.620;19.560;2023-07-13T05:27:53;23.00;99.90
43697;DHT22;29301;47.620;19.560;2023-07-13T05:30:18;23.00;99.90
43697;DHT22;29301;47.620;19.560;2023-07-13T05:32:44;23.00;99.90
43697;DHT22;29301;47.620;19.560;2023-07-13T05:35:11;23.00;99.90
43697;DHT22;29301;47.620;19.560;2023-07-13T05:37:37;23.00;99.90
43697;DHT22;29301;47.620;19.560;2023-07-13T05:40:03;23.00;99.90
43697;DHT22;29301;47.620;19.560;2023-07-13T05:42:29;23.00;99.90
43697;DHT22;29301;47.620;19.560;2023-07-13T05:44:56;23.00;99.90
43697;DHT22;29301;47.620;19.560;2023-07-13T05:47:22;22.90;99.90
43697;DHT22;29301;47.620;19.560;2023-07-13T05:49:48;23.00;99.90
43697;DHT22;29301;47.620;19.560;2023-07-13T05:52:13;22.90;99.90
43697;DHT22;29301;47.620;19.560;2023-07-13T05:54:39;22.90;99.90
43697;DHT22;29301;47.620;19.560;2023-07-13T05:57:05;22.80;99.90
43697;DHT22;29301;47.620;19.560;2023-07-13T05:59:30;22.70;99.90
43697;DHT22;29301;47.620;19.560;2023-07-13T06:01:56;22.60;99.90
43697;DHT22;29301;47.620;19.560;2023-07-13T06:04:22;22.50;99.90
43697;DHT22;29301;47.620;19.560;2023-07-13T06:06:47;22.30;99.90
43697;DHT22;29301;47.620;19.560;2023-07-13T06:09:13;22.30;99.90
43697;DHT22;29301;47.620;19.560;2023-07-13T06:11:39;22.30;99.90
43697;DHT22;29301;47.620;19.560;2023-07-13T06:14:04;22.20;99.90
43697;DHT22;29301;47.620;19.560;2023-07-13T06:16:30;22.20;99.90
43697;DHT22;29301;47.620;19.560;2023-07-13T06:18:56;22.20;99.90
43697;DHT22;29301;47.620;19.560;2023-07-13T06:21:23;22.20;99.90
43697;DHT22;29301;47.620;19.560;2023-07-13T06:23:50;22.10;99.90
43697;DHT22;29301;47.620;19.560;2023-07-13T06:26:17;22.10;99.90
43697;DHT22;29301;47.620;19.560;2023-07-13T06:28:43;22.00;99.90
43697;DHT22;29301;47.620;19.560;2023-07-13T06:31:11;22.00;99.90
43697;DHT22;29301;47.620;19.560;2023-07-13T06:33:37;22.00;99.90
43697;DHT22;29301;47.620;19.560;2023-07-13T06:36:04;22.00;99.90
43697;DHT22;29301;47.620;19.560;2023-07-13T06:38:30;21.90;99.90
43697;DHT22;29301;47.620;19.560;2023-07-13T06:40:56;21.90;99.90
43697;DHT22;29301;47.620;19.560;2023-07-13T06:43:22;21.90;99.90
43697;DHT22;29301;47.620;19.560;2023-07-13T06:45:50;21.90;99.90
43697;DHT22;29301;47.620;19.560;2023-07-13T06:48:17;21.90;99.90
43697;DHT22;29301;47.620;19.560;2023-07-13T06:50:43;21.70;99.90
43697;DHT22;29301;47.620;19.560;2023-07-13T06:53:13;21.50;99.90
43697;DHT22;29301;47.620;19.560;2023-07-13T06:55:39;21.40;99.90
43697;DHT22;29301;47.620;19.560;2023-07-13T06:58:05;21.40;99.90
43697;DHT22;29301;47.620;19.560;2023-07-13T07:00:31;21.50;99.90
43697;DHT22;29301;47.620;19.560;2023-07-13T07:02:56;21.40;99.90
43697;DHT22;29301;47.620;19.560;2023-07-13T07:05:22;21.50;99.90
43697;DHT22;29301;47.620;19.560;2023-07-13T07:07:50;21.60;99.90
43697;DHT22;29301;47.620;19.560;2023-07-13T07:10:16;21.50;99.90
43697;DHT22;29301;47.620;19.560;2023-07-13T07:12:41;21.60;99.90
43697;DHT22;29301;47.620;19.560;2023-07-13T07:15:07;21.70;99.90
43697;DHT22;29301;47.620;19.560;2023-07-13T07:17:33;21.70;99.90
43697;DHT22;29301;47.620;19.560;2023-07-13T07:19:58;21.70;99.90
43697;DHT22;29301;47.620;19.560;2023-07-13T07:22:24;21.80;99.90
43697;DHT22;29301;47.620;19.560;2023-07-13T07:24:53;21.80;99.90
43697;DHT22;29301;47.620;19.560;2023-07-13T07:27:19;22.00;99.90
43697;DHT22;29301;47.620;19.560;2023-07-13T07:29:44;22.10;99.90
43697;DHT22;29301;47.620;19.560;2023-07-13T07:32:10;22.20;99.90
43697;DHT22;29301;47.620;19.560;2023-07-13T07:34:36;22.30;99.90
43697;DHT22;29301;47.620;19.560;2023-07-13T07:37:02;22.30;99.90
43697;DHT22;29301;47.620;19.560;2023-07-13T07:39:27;22.40;99.90
43697;DHT22;29301;47.620;19.560;2023-07-13T07:41:53;22.60;99.90
43697;DHT22;29301;47.620;19.560;2023-07-13T07:44:19;22.80;99.90
43697;DHT22;29301;47.620;19.560;2023-07-13T07:46:45;23.00;99.90
43697;DHT22;29301;47.620;19.560;2023-07-13T07:49:10;23.40;99.90
43697;DHT22;29301;47.620;19.560;2023-07-13T07:51:36;23.50;98.30
43697;DHT22;29301;47.620;19.560;2023-07-13T07:54:03;23.60;98.20
43697;DHT22;29301;47.620;19.560;2023-07-13T07:56:29;23.50;97.80
43697;DHT22;29301;47.620;19.560;2023-07-13T07:58:55;23.40;98.00
43697;DHT22;29301;47.620;19.560;2023-07-13T08:01:20;23.60;97.50
43697;DHT22;29301;47.620;19.560;2023-07-13T08:03:46;23.80;97.10
43697;DHT22;29301;47.620;19.560;2023-07-13T08:06:12;24.10;97.00
43697;DHT22;29301;47.620;19.560;2023-07-13T08:08:38;24.40;94.10
43697;DHT22;29301;47.620;19.560;2023-07-13T08:11:05;24.60;92.00
43697;DHT22;29301;47.620;19.560;2023-07-13T08:13:31;24.70;90.40
43697;DHT22;29301;47.620;19.560;2023-07-13T08:15:57;24.80;89.70
43697;DHT22;29301;47.620;19.560;2023-07-13T08:18:22;25.10;86.10
43697;DHT22;29301;47.620;19.560;2023-07-13T08:20:48;25.10;84.60
43697;DHT22;29301;47.620;19.560;2023-07-13T08:23:14;25.20;83.60
43697;DHT22;29301;47.620;19.560;2023-07-13T08:25:40;25.40;85.40
43697;DHT22;29301;47.620;19.560;2023-07-13T08:28:06;25.50;82.10
43697;DHT22;29301;47.620;19.560;2023-07-13T08:30:31;25.50;81.80
43697;DHT22;29301;47.620;19.560;2023-07-13T08:32:57;25.70;82.40
43697;DHT22;29301;47.620;19.560;2023-07-13T08:35:23;25.80;81.20
43697;DHT22;29301;47.620;19.560;2023-07-13T08:37:51;25.90;78.30
43697;DHT22;29301;47.620;19.560;2023-07-13T08:40:18;26.10;78.80
43697;DHT22;29301;47.620;19.560;2023-07-13T08:42:45;26.20;75.30
43697;DHT22;29301;47.620;19.560;2023-07-13T08:45:34;26.30;72.80
43697;DHT22;29301;47.620;19.560;2023-07-13T08:48:26;26.50;72.80
43697;DHT22;29301;47.620;19.560;2023-07-13T08:51:00;26.60;72.90
43697;DHT22;29301;47.620;19.560;2023-07-13T08:53:40;26.70;67.60
43697;DHT22;29301;47.620;19.560;2023-07-13T08:56:16;26.70;67.00
43697;DHT22;29301;47.620;19.560;2023-07-13T08:58:43;26.70;66.10
43697;DHT22;29301;47.620;19.560;2023-07-13T09:06:20;27.10;62.70
43697;DHT22;29301;47.620;19.560;2023-07-13T09:09:16;27.20;64.00
43697;DHT22;29301;47.620;19.560;2023-07-13T09:11:47;27.30;62.70
43697;DHT22;29301;47.620;19.560;2023-07-13T09:17:10;27.30;62.90
43697;DHT22;29301;47.620;19.560;2023-07-13T09:19:37;27.50;63.10
43697;DHT22;29301;47.620;19.560;2023-07-13T09:22:05;27.60;62.80
43697;DHT22;29301;47.620;19.560;2023-07-13T09:24:45;27.70;62.20
43697;DHT22;29301;47.620;19.560;2023-07-13T09:27:23;27.80;62.10
43697;DHT22;29301;47.620;19.560;2023-07-13T09:30:04;27.90;60.60
43697;DHT22;29301;47.620;19.560;2023-07-13T09:32:36;28.00;60.80
43697;DHT22;29301;47.620;19.560;2023-07-13T09:35:12;28.20;62.30
43697;DHT22;29301;47.620;19.560;2023-07-13T09:37:39;28.40;60.50
43697;DHT22;29301;47.620;19.560;2023-07-13T09:40:13;28.50;59.70
43697;DHT22;29301;47.620;19.560;2023-07-13T09:42:42;28.60;59.60
43697;DHT22;29301;47.620;19.560;2023-07-13T09:45:07;28.70;58.30
43697;DHT22;29301;47.620;19.560;2023-07-13T09:47:39;28.70;57.50
43697;DHT22;29301;47.620;19.560;2023-07-13T09:50:15;28.70;56.90
43697;DHT22;29301;47.620;19.560;2023-07-13T09:52:47;28.70;56.90
43697;DHT22;29301;47.620;19.560;2023-07-13T09:55:30;28.70;55.40
43697;DHT22;29301;47.620;19.560;2023-07-13T09:57:56;28.80;54.80
43697;DHT22;29301;47.620;19.560;2023-07-13T10:00:25;28.90;54.20
43697;DHT22;29301;47.620;19.560;2023-07-13T10:03:24;29.10;54.10
43697;DHT22;29301;47.620;19.560;2023-07-13T10:05:50;29.10;52.80
43697;DHT22;29301;47.620;19.560;2023-07-13T10:08:30;29.10;52.60
43697;DHT22;29301;47.620;19.560;2023-07-13T10:11:09;29.10;52.80
43697;DHT22;29301;47.620;19.560;2023-07-13T10:13:42;29.00;52.70
43697;DHT22;29301;47.620;19.560;2023-07-13T10:16:09;29.10;53.00
43697;DHT22;29301;47.620;19.560;2023-07-13T10:18:46;29.20;53.20
43697;DHT22;29301;47.620;19.560;2023-07-13T10:21:18;29.20;52.40
43697;DHT22;29301;47.620;19.560;2023-07-13T10:23:54;29.30;52.10
43697;DHT22;29301;47.620;19.560;2023-07-13T10:26:27;29.40;50.40
43697;DHT22;29301;47.620;19.560;2023-07-13T10:28:59;29.40;51.60
43697;DHT22;29301;47.620;19.560;2023-07-13T10:31:26;29.40;51.00
43697;DHT22;29301;47.620;19.560;2023-07-13T10:33:52;29.40;50.20
43697;DHT22;29301;47.620;19.560;2023-07-13T10:39:00;29.40;51.20
43697;DHT22;29301;47.620;19.560;2023-07-13T10:41:28;29.50;49.70
43697;DHT22;29301;47.620;19.560;2023-07-13T10:43:56;29.80;49.90
43697;DHT22;29301;47.620;19.560;2023-07-13T10:46:24;29.80;48.30
43697;DHT22;29301;47.620;19.560;2023-07-13T10:48:57;29.80;47.30
43697;DHT22;29301;47.620;19.560;2023-07-13T10:51:23;29.60;48.10
43697;DHT22;29301;47.620;19.560;2023-07-13T10:54:21;29.60;48.20
43697;DHT22;29301;47.620;19.560;2023-07-13T10:56:53;29.60;47.70
43697;DHT22;29301;47.620;19.560;2023-07-13T10:59:32;29.80;47.80
43697;DHT22;29301;47.620;19.560;2023-07-13T11:04:49;30.00;45.40
43697;DHT22;29301;47.620;19.560;2023-07-13T11:07:24;30.00;44.60
43697;DHT22;29301;47.620;19.560;2023-07-13T11:09:55;29.70;44.60
43697;DHT22;29301;47.620;19.560;2023-07-13T11:17:34;29.80;45.40
43697;DHT22;29301;47.620;19.560;2023-07-13T11:22:47;29.90;44.60
43697;DHT22;29301;47.620;19.560;2023-07-13T11:30:42;29.90;44.30
43697;DHT22;29301;47.620;19.560;2023-07-13T11:38:39;30.00;43.60
43697;DHT22;29301;47.620;19.560;2023-07-13T11:41:15;30.00;43.10
43697;DHT22;29301;47.620;19.560;2023-07-13T11:43:41;30.20;43.90
43697;DHT22;29301;47.620;19.560;2023-07-13T11:46:25;30.20;43.10
43697;DHT22;29301;47.620;19.560;2023-07-13T11:48:52;30.20;43.10
43697;DHT22;29301;47.620;19.560;2023-07-13T11:51:30;30.30;41.20
43697;DHT22;29301;47.620;19.560;2023-07-13T11:54:02;30.30;41.10
43697;DHT22;29301;47.620;19.560;2023-07-13T11:56:28;30.30;41.40
43697;DHT22;29301;47.620;19.560;2023-07-13T11:58:56;30.30;41.20
43697;DHT22;29301;47.620;19.560;2023-07-13T12:01:31;30.40;40.60
43697;DHT22;29301;47.620;19.560;2023-07-13T12:04:02;30.50;42.00
43697;DHT22;29301;47.620;19.560;2023-07-13T12:06:32;30.70;40.50
43697;DHT22;29301;47.620;19.560;2023-07-13T12:09:00;30.80;40.40
43697;DHT22;29301;47.620;19.560;2023-07-13T12:11:27;30.90;39.20
43697;DHT22;29301;47.620;19.560;2023-07-13T12:13:53;30.90;39.10
43697;DHT22;29301;47.620;19.560;2023-07-13T12:16:32;30.90;38.20
43697;DHT22;29301;47.620;19.560;2023-07-13T12:19:00;30.80;38.80
43697;DHT22;29301;47.620;19.560;2023-07-13T12:21:34;30.70;37.50
43697;DHT22;29301;47.620;19.560;2023-07-13T12:24:00;30.70;38.70
43697;DHT22;29301;47.620;19.560;2023-07-13T12:26:30;30.70;37.70
43697;DHT22;29301;47.620;19.560;2023-07-13T12:28:58;30.90;38.60
43697;DHT22;29301;47.620;19.560;2023-07-13T12:31:42;31.10;38.90
43697;DHT22;29301;47.620;19.560;2023-07-13T12:34:11;31.20;38.00
43697;DHT22;29301;47.620;19.560;2023-07-13T12:36:45;31.20;37.50
43697;DHT22;29301;47.620;19.560;2023-07-13T12:39:35;31.10;36.50
43697;DHT22;29301;47.620;19.560;2023-07-13T12:47:22;31.20;37.20
43697;DHT22;29301;47.620;19.560;2023-07-13T12:49:55;31.20;37.20
43697;DHT22;29301;47.620;19.560;2023-07-13T12:52:32;31.20;36.60
43697;DHT22;29301;47.620;19.560;2023-07-13T12:55:10;31.20;36.50
43697;DHT22;29301;47.620;19.560;2023-07-13T12:57:53;31.20;36.70
43697;DHT22;29301;47.620;19.560;2023-07-13T13:00:32;31.10;36.50
43697;DHT22;29301;47.620;19.560;2023-07-13T13:03:03;31.10;36.10
43697;DHT22;29301;47.620;19.560;2023-07-13T13:05:31;31.00;36.40
43697;DHT22;29301;47.620;19.560;2023-07-13T13:07:57;31.00;34.80
43697;DHT22;29301;47.620;19.560;2023-07-13T13:10:23;30.80;35.50
43697;DHT22;29301;47.620;19.560;2023-07-13T13:12:50;30.80;35.40
43697;DHT22;29301;47.620;19.560;2023-07-13T13:15:15;30.70;36.20
43697;DHT22;29301;47.620;19.560;2023-07-13T13:17:42;30.80;36.70
43697;DHT22;29301;47.620;19.560;2023-07-13T13:20:16;30.80;37.00
43697;DHT22;29301;47.620;19.560;2023-07-13T13:22:42;30.80;36.60
43697;DHT22;29301;47.620;19.560;2023-07-13T13:25:12;30.80;37.00
43697;DHT22;29301;47.620;19.560;2023-07-13T13:27:39;30.90;37.20
43697;DHT22;29301;47.620;19.560;2023-07-13T13:30:11;30.70;37.00
43697;DHT22;29301;47.620;19.560;2023-07-13T13:32:42;30.70;37.30
43697;DHT22;29301;47.620;19.560;2023-07-13T13:35:15;30.80;37.10
43697;DHT22;29301;47.620;19.560;2023-07-13T13:37:42;30.90;37.10
43697;DHT22;29301;47.620;19.560;2023-07-13T13:40:19;30.80;37.00
43697;DHT22;29301;47.620;19.560;2023-07-13T13:42:46;30.80;36.40
43697;DHT22;29301;47.620;19.560;2023-07-13T13:45:12;30.90;36.20
43697;DHT22;29301;47.620;19.560;2023-07-13T13:47:39;30.90;36.30
43697;DHT22;29301;47.620;19.560;2023-07-13T13:50:31;30.90;35.90
43697;DHT22;29301;47.620;19.560;2023-07-13T13:52:57;30.80;35.80
43697;DHT22;29301;47.620;19.560;2023-07-13T13:55:23;30.80;36.50
43697;DHT22;29301;47.620;19.560;2023-07-13T13:57:49;30.70;37.10
43697;DHT22;29301;47.620;19.560;2023-07-13T14:00:16;30.80;37.10
43697;DHT22;29301;47.620;19.560;2023-07-13T14:02:45;30.80;36.10
43697;DHT22;29301;47.620;19.560;2023-07-13T14:05:22;30.70;36.40
43697;DHT22;29301;47.620;19.560;2023-07-13T14:07:48;30.60;36.20
43697;DHT22;29301;47.620;19.560;2023-07-13T14:10:17;30.60;35.60
43697;DHT22;29301;47.620;19.560;2023-07-13T14:12:45;30.60;35.80
43697;DHT22;29301;47.620;19.560;2023-07-13T14:15:24;30.50;35.90
43697;DHT22;29301;47.620;19.560;2023-07-13T14:17:50;30.60;36.30
43697;DHT22;29301;47.620;19.560;2023-07-13T14:20:18;30.60;35.90
43697;DHT22;29301;47.620;19.560;2023-07-13T14:22:44;30.50;36.10
43697;DHT22;29301;47.620;19.560;2023-07-13T14:25:14;30.40;35.80
43697;DHT22;29301;47.620;19.560;2023-07-13T14:27:42;30.30;36.70
43697;DHT22;29301;47.620;19.560;2023-07-13T14:30:18;30.30;37.10
43697;DHT22;29301;47.620;19.560;2023-07-13T14:32:44;30.30;36.30
43697;DHT22;29301;47.620;19.560;2023-07-13T14:35:14;30.20;36.20
43697;DHT22;29301;47.620;19.560;2023-07-13T14:37:41;30.00;36.40
43697;DHT22;29301;47.620;19.560;2023-07-13T14:40:23;30.00;36.30
43697;DHT22;29301;47.620;19.560;2023-07-13T14:42:49;29.80;36.70
43697;DHT22;29301;47.620;19.560;2023-07-13T14:45:19;29.80;36.50
43697;DHT22;29301;47.620;19.560;2023-07-13T14:47:46;29.80;36.60
43697;DHT22;29301;47.620;19.560;2023-07-13T14:50:17;29.80;36.90
43697;DHT22;29301;47.620;19.560;2023-07-13T14:52:44;29.80;37.80
43697;DHT22;29301;47.620;19.560;2023-07-13T14:55:15;29.80;37.90
43697;DHT22;29301;47.620;19.560;2023-07-13T14:57:41;29.80;37.70
43697;DHT22;29301;47.620;19.560;2023-07-13T15:00:18;29.90;37.90
43697;DHT22;29301;47.620;19.560;2023-07-13T15:02:52;29.90;37.50
43697;DHT22;29301;47.620;19.560;2023-07-13T15:05:22;29.80;37.30
43697;DHT22;29301;47.620;19.560;2023-07-13T15:07:50;29.70;36.70
43697;DHT22;29301;47.620;19.560;2023-07-13T15:10:28;29.60;37.30
43697;DHT22;29301;47.620;19.560;2023-07-13T15:13:12;29.60;37.70
43697;DHT22;29301;47.620;19.560;2023-07-13T15:15:40;29.50;37.70
43697;DHT22;29301;47.620;19.560;2023-07-13T15:18:11;29.60;37.80
43697;DHT22;29301;47.620;19.560;2023-07-13T15:20:37;29.50;36.90
43697;DHT22;29301;47.620;19.560;2023-07-13T15:23:04;29.40;37.20
43697;DHT22;29301;47.620;19.560;2023-07-13T15:25:31;29.40;37.40
43697;DHT22;29301;47.620;19.560;2023-07-13T15:27:59;29.40;37.80
43697;DHT22;29301;47.620;19.560;2023-07-13T15:30:31;29.40;38.10
43697;DHT22;29301;47.620;19.560;2023-07-13T15:33:05;29.40;38.70
43697;DHT22;29301;47.620;19.560;2023-07-13T15:35:35;29.30;38.10
43697;DHT22;29301;47.620;19.560;2023-07-13T15:38:00;29.30;38.70
43697;DHT22;29301;47.620;19.560;2023-07-13T15:40:28;29.30;38.70
43697;DHT22;29301;47.620;19.560;2023-07-13T15:42:53;29.30;38.70
43697;DHT22;29301;47.620;19.560;2023-07-13T15:45:23;29.20;38.70
43697;DHT22;29301;47.620;19.560;2023-07-13T15:47:52;29.20;39.20
43697;DHT22;29301;47.620;19.560;2023-07-13T15:50:20;29.20;39.30
43697;DHT22;29301;47.620;19.560;2023-07-13T15:52:52;29.20;38.70
43697;DHT22;29301;47.620;19.560;2023-07-13T15:55:18;29.10;38.50
43697;DHT22;29301;47.620;19.560;2023-07-13T15:57:50;29.10;38.80
43697;DHT22;29301;47.620;19.560;2023-07-13T16:00:25;29.10;39.00
43697;DHT22;29301;47.620;19.560;2023-07-13T16:02:51;29.10;39.10
43697;DHT22;29301;47.620;19.560;2023-07-13T16:05:19;29.10;39.50